Time;durP1;ratioP1;P1;durP2;ratioP2;P2;SDS_P1;SDS_P2;PMS_P1;PMS_P2;Temp;Humidity;BMP_temperature;BMP_pressure;BME280_temperature;BME280_humidity;BME280_pressure;Samples;Min_cycle;Max_cycle;Signal;HPM_P1;HPM_P2
2023/05/22 00:02:05;;;;;;;0.20;0.20;;;14.60;99.90;;;;;;5032587;28;20034;-72
2023/05/22 00:04:31;;;;;;;0.20;0.20;;;14.60;99.90;;;;;;5032767;28;20017;-72
2023/05/22 00:06:56;;;;;;;0.20;0.20;;;14.50;99.90;;;;;;5032257;28;20549;-73
2023/05/22 00:09:24;;;;;;;0.20;0.20;;;14.50;99.90;;;;;;5032739;28;20544;-72
2023/05/22 00:11:50;;;;;;;0.20;0.20;;;14.40;99.90;;;;;;5032235;28;20021;-72
2023/05/22 00:14:15;;;;;;;0.20;0.20;;;14.40;99.90;;;;;;5032582;28;20453;-72
2023/05/22 00:16:41;;;;;;;0.20;0.20;;;14.40;99.90;;;;;;5032314;28;20483;-72
2023/05/22 00:19:11;;;;;;;0.20;0.20;;;14.40;99.90;;;;;;5032490;28;20499;-72
2023/05/22 00:21:38;;;;;;;0.20;0.20;;;14.40;99.90;;;;;;5032594;28;20021;-72
2023/05/22 00:24:04;;;;;;;0.20;0.20;;;14.40;99.90;;;;;;5032520;28;20100;-72
2023/05/22 00:26:30;;;;;;;0.10;0.10;;;14.40;99.90;;;;;;5032243;28;20033;-71
2023/05/22 00:28:56;;;;;;;0.10;0.10;;;14.30;99.90;;;;;;5032479;28;20037;-72
2023/05/22 00:31:22;;;;;;;0.20;0.20;;;14.40;99.90;;;;;;5032169;28;20025;-72
2023/05/22 00:33:47;;;;;;;0.20;0.20;;;14.40;99.90;;;;;;5032361;28;20075;-72
2023/05/22 00:36:13;;;;;;;0.20;0.20;;;14.30;99.90;;;;;;5032370;28;20029;-72
2023/05/22 00:38:38;;;;;;;0.10;0.10;;;14.40;99.90;;;;;;5032306;28;20029;-72
2023/05/22 00:41:05;;;;;;;0.17;0.17;;;14.40;99.90;;;;;;5032402;28;20092;-72
2023/05/22 00:43:31;;;;;;;0.17;0.17;;;14.40;99.90;;;;;;5021521;28;20033;-73
2023/05/22 00:45:57;;;;;;;0.20;0.20;;;14.40;99.90;;;;;;5014378;28;20041;-72
2023/05/22 00:48:23;;;;;;;0.20;0.20;;;14.40;99.90;;;;;;5012559;28;20076;-72
2023/05/22 00:50:49;;;;;;;0.13;0.13;;;14.40;99.90;;;;;;5012286;28;20022;-72
2023/05/22 00:53:16;;;;;;;0.20;0.20;;;14.40;99.90;;;;;;4994860;28;20033;-72
2023/05/22 00:55:43;;;;;;;0.10;0.10;;;14.40;99.90;;;;;;5012167;28;20026;-72
2023/05/22 00:58:12;;;;;;;0.20;0.20;;;14.40;99.90;;;;;;5024853;28;20018;-72
2023/05/22 01:00:41;;;;;;;0.20;0.20;;;14.40;99.90;;;;;;5035595;28;20034;-72
2023/05/22 01:03:08;;;;;;;0.20;0.20;;;14.40;99.90;;;;;;5035731;28;20037;-72
2023/05/22 01:05:34;;;;;;;0.20;0.20;;;14.40;99.90;;;;;;5035761;28;20104;-73
2023/05/22 01:08:00;;;;;;;0.20;0.20;;;14.40;99.90;;;;;;5035740;28;20079;-73
2023/05/22 01:10:27;;;;;;;0.20;0.20;;;14.40;99.90;;;;;;5035665;28;20033;-72
2023/05/22 01:13:11;;;;;;;0.20;0.20;;;14.40;99.90;;;;;;5035588;28;20478;-72
2023/05/22 01:15:40;;;;;;;0.13;0.13;;;14.40;99.90;;;;;;5035988;28;20021;-72
2023/05/22 01:18:39;;;;;;;0.20;0.20;;;14.40;99.90;;;;;;5035734;28;20022;-72
2023/05/22 01:21:46;;;;;;;0.20;0.20;;;14.40;99.90;;;;;;5036088;28;20014;-72
2023/05/22 01:24:50;;;;;;;0.20;0.20;;;14.40;99.90;;;;;;4991726;28;20483;-72
2023/05/22 01:27:35;;;;;;;;;;;14.40;99.90;;;;;;5036034;28;20116;-72
2023/05/22 01:30:25;;;;;;;0.20;0.20;;;14.40;99.90;;;;;;5035154;28;20347;-72
2023/05/22 01:32:56;;;;;;;0.15;0.15;;;14.40;99.90;;;;;;5035442;28;20112;-72
2023/05/22 01:35:24;;;;;;;0.20;0.20;;;14.40;99.90;;;;;;5034836;28;20032;-72
2023/05/22 01:37:50;;;;;;;0.20;0.20;;;14.40;99.90;;;;;;5034964;28;20056;-73
2023/05/22 01:40:17;;;;;;;0.20;0.20;;;14.30;99.90;;;;;;5034926;28;20071;-72
2023/05/22 01:42:42;;;;;;;0.10;0.10;;;14.30;99.90;;;;;;5034762;28;20437;-73
2023/05/22 01:45:10;;;;;;;0.20;0.20;;;14.30;99.90;;;;;;5034823;28;20034;-73
2023/05/22 01:47:36;;;;;;;0.20;0.20;;;14.30;99.90;;;;;;5034930;28;20030;-72
2023/05/22 01:50:03;;;;;;;0.20;0.20;;;14.20;99.90;;;;;;5034746;28;20025;-72
2023/05/22 01:53:01;;;;;;;0.20;0.20;;;14.20;99.90;;;;;;5034761;28;20035;-72
2023/05/22 01:55:45;;;;;;;0.20;0.20;;;14.10;99.90;;;;;;5016750;28;20048;-72
2023/05/22 01:58:13;;;;;;;0.20;0.20;;;14.10;99.90;;;;;;5034883;28;20018;-72
2023/05/22 02:00:42;;;;;;;0.20;0.20;;;14.00;99.90;;;;;;5034384;28;20026;-72
2023/05/22 02:03:15;;;;;;;0.20;0.20;;;14.00;99.90;;;;;;5034623;28;20025;-72
2023/05/22 02:05:42;;;;;;;0.20;0.20;;;14.00;99.90;;;;;;5034261;28;20033;-72
2023/05/22 02:08:10;;;;;;;0.20;0.20;;;13.90;99.90;;;;;;5034259;28;20026;-73
2023/05/22 02:10:37;;;;;;;0.20;0.20;;;13.90;99.90;;;;;;5034244;28;20044;-73
2023/05/22 02:13:03;;;;;;;0.20;0.20;;;13.90;99.90;;;;;;5034303;28;20036;-72
2023/05/22 02:15:29;;;;;;;0.20;0.20;;;13.80;99.90;;;;;;5034033;28;20029;-72
2023/05/22 02:17:55;;;;;;;0.20;0.20;;;13.80;99.90;;;;;;5034324;28;20026;-72
2023/05/22 02:20:21;;;;;;;0.20;0.20;;;13.80;99.90;;;;;;5034228;28;20052;-72
2023/05/22 02:22:47;;;;;;;0.20;0.20;;;13.80;99.90;;;;;;5034522;28;20542;-73
2023/05/22 02:25:15;;;;;;;0.20;0.20;;;13.80;99.90;;;;;;5033845;28;20052;-72
2023/05/22 02:27:42;;;;;;;0.20;0.20;;;13.80;99.90;;;;;;5056129;23;20053;-68
2023/05/22 02:30:08;;;;;;;0.20;0.20;;;13.80;99.90;;;;;;5033846;28;20014;-68
2023/05/22 02:32:34;;;;;;;0.20;0.20;;;13.80;99.90;;;;;;5034167;28;20041;-68
2023/05/22 02:35:00;;;;;;;0.20;0.20;;;13.80;99.90;;;;;;5034397;28;20395;-68
2023/05/22 02:37:25;;;;;;;0.20;0.20;;;13.80;99.90;;;;;;5034114;28;20025;-68
2023/05/22 02:39:51;;;;;;;0.10;0.10;;;13.80;99.90;;;;;;5034276;28;20025;-68
2023/05/22 02:42:16;;;;;;;0.20;0.20;;;13.80;99.90;;;;;;5033998;28;20502;-68
2023/05/22 02:44:42;;;;;;;0.20;0.20;;;13.80;99.90;;;;;;5034151;28;20033;-67
2023/05/22 02:47:07;;;;;;;0.20;0.20;;;13.80;99.90;;;;;;5033842;28;20025;-68
2023/05/22 02:49:33;;;;;;;0.20;0.20;;;13.80;99.90;;;;;;5034071;28;20032;-68
2023/05/22 02:51:59;;;;;;;0.10;0.10;;;13.80;99.90;;;;;;5033761;28;20423;-68
2023/05/22 02:54:24;;;;;;;0.20;0.20;;;13.80;99.90;;;;;;5033980;28;20493;-68
2023/05/22 02:56:50;;;;;;;0.20;0.20;;;13.70;99.90;;;;;;5033930;28;20543;-68
2023/05/22 02:59:15;;;;;;;0.20;0.20;;;13.70;99.90;;;;;;5033661;28;20052;-68
2023/05/22 03:01:43;;;;;;;0.20;0.20;;;13.70;99.90;;;;;;5033893;28;20456;-68
2023/05/22 03:04:08;;;;;;;0.20;0.20;;;13.70;99.90;;;;;;5033602;28;20018;-68
2023/05/22 03:06:35;;;;;;;0.20;0.20;;;13.70;99.90;;;;;;5033512;28;20032;-68
2023/05/22 03:09:03;;;;;;;0.13;0.13;;;13.70;99.90;;;;;;5033783;28;20014;-68
2023/05/22 03:11:29;;;;;;;0.20;0.20;;;13.70;99.90;;;;;;5033715;28;20025;-68
2023/05/22 03:13:55;;;;;;;0.10;0.10;;;13.70;99.90;;;;;;5033389;28;20498;-68
2023/05/22 03:16:21;;;;;;;0.20;0.20;;;13.70;99.90;;;;;;5033604;28;20033;-68
2023/05/22 03:18:46;;;;;;;0.20;0.20;;;13.70;99.90;;;;;;5033020;28;20464;-68
2023/05/22 03:21:12;;;;;;;0.20;0.20;;;13.70;99.90;;;;;;5032542;28;20025;-68
2023/05/22 03:23:37;;;;;;;0.22;0.22;;;13.70;99.90;;;;;;5033701;28;20040;-68
2023/05/22 03:26:03;;;;;;;0.10;0.10;;;13.70;99.90;;;;;;5032641;28;20505;-68
2023/05/22 03:28:28;;;;;;;0.20;0.20;;;13.70;99.90;;;;;;5033127;28;20033;-68
2023/05/22 03:30:54;;;;;;;0.20;0.20;;;13.70;99.90;;;;;;5032835;28;20112;-68
2023/05/22 03:33:19;;;;;;;0.20;0.20;;;13.70;99.90;;;;;;5033281;28;20037;-68
2023/05/22 03:35:45;;;;;;;0.20;0.20;;;13.70;99.90;;;;;;5032996;28;20025;-68
2023/05/22 03:38:10;;;;;;;0.20;0.20;;;13.70;99.90;;;;;;5032948;28;20048;-68
2023/05/22 03:40:36;;;;;;;0.13;0.13;;;13.70;99.90;;;;;;5032688;28;20017;-68
2023/05/22 03:43:01;;;;;;;0.20;0.20;;;13.70;99.90;;;;;;5032719;28;20090;-67
2023/05/22 03:45:27;;;;;;;0.20;0.20;;;13.70;99.90;;;;;;5032620;28;20033;-68
2023/05/22 03:47:52;;;;;;;0.20;0.20;;;13.80;99.90;;;;;;5032560;28;20167;-68
2023/05/22 03:50:18;;;;;;;0.20;0.20;;;13.80;99.90;;;;;;5032567;28;20021;-68
2023/05/22 03:52:43;;;;;;;0.20;0.20;;;13.80;99.90;;;;;;5032514;28;20045;-68
2023/05/22 03:55:09;;;;;;;0.20;0.20;;;13.90;99.90;;;;;;5033066;28;20036;-68
2023/05/22 03:57:35;;;;;;;0.20;0.20;;;13.90;99.90;;;;;;5032751;28;20025;-68
2023/05/22 04:00:08;;;;;;;0.20;0.20;;;13.90;99.90;;;;;;5032717;28;20014;-68
2023/05/22 04:02:34;;;;;;;0.20;0.20;;;13.90;99.90;;;;;;5028280;28;20036;-68
2023/05/22 04:05:00;;;;;;;0.13;0.13;;;14.00;99.90;;;;;;5018255;28;20025;-68
2023/05/22 04:07:25;;;;;;;0.20;0.20;;;14.00;99.90;;;;;;5030045;28;20025;-68
2023/05/22 04:09:51;;;;;;;0.15;0.15;;;14.00;99.90;;;;;;5031989;28;20053;-68
2023/05/22 04:12:16;;;;;;;0.15;0.15;;;14.10;99.90;;;;;;5016743;28;20468;-68
2023/05/22 04:14:42;;;;;;;0.20;0.20;;;14.20;99.90;;;;;;5030610;28;20162;-67
2023/05/22 04:17:07;;;;;;;0.20;0.20;;;14.20;99.90;;;;;;5023345;28;20120;-68
2023/05/22 04:19:33;;;;;;;0.20;0.20;;;14.20;99.90;;;;;;5028143;28;20414;-68
2023/05/22 04:21:58;;;;;;;0.20;0.20;;;14.20;99.90;;;;;;5032120;28;20037;-68
2023/05/22 04:24:24;;;;;;;0.20;0.20;;;14.30;99.90;;;;;;5032403;28;20096;-68
2023/05/22 04:26:49;;;;;;;0.20;0.20;;;14.40;99.90;;;;;;5032024;28;20033;-68
2023/05/22 04:29:15;;;;;;;0.10;0.10;;;14.40;99.90;;;;;;5032555;28;20040;-68
2023/05/22 04:31:41;;;;;;;0.13;0.13;;;14.40;99.90;;;;;;5029559;28;20026;-68
2023/05/22 04:34:13;;;;;;;0.20;0.20;;;14.40;99.90;;;;;;5029636;28;20018;-68
2023/05/22 04:36:38;;;;;;;0.10;0.10;;;14.50;99.90;;;;;;5035672;28;20479;-68
2023/05/22 04:39:04;;;;;;;0.20;0.20;;;14.50;99.90;;;;;;5035875;28;20033;-68
2023/05/22 04:41:31;;;;;;;0.20;0.20;;;14.60;99.90;;;;;;5035868;28;20026;-68
2023/05/22 04:43:57;;;;;;;0.10;0.10;;;14.60;99.90;;;;;;5035796;28;20470;-68
2023/05/22 04:46:22;;;;;;;0.20;0.20;;;14.70;99.90;;;;;;5036059;28;20386;-68
2023/05/22 04:48:48;;;;;;;0.20;0.20;;;14.70;99.90;;;;;;5035681;28;20029;-68
2023/05/22 04:51:14;;;;;;;0.20;0.20;;;14.80;99.90;;;;;;5035878;28;20022;-68
2023/05/22 04:53:39;;;;;;;0.20;0.20;;;14.80;99.90;;;;;;5035673;28;20498;-68
2023/05/22 04:56:06;;;;;;;0.20;0.20;;;14.90;99.90;;;;;;5035912;28;20057;-68
2023/05/22 04:58:31;;;;;;;0.10;0.10;;;14.90;99.90;;;;;;5035544;28;20037;-68
2023/05/22 05:00:58;;;;;;;0.20;0.20;;;14.90;99.90;;;;;;5035773;28;20022;-68
2023/05/22 05:03:27;;;;;;;0.15;0.15;;;14.90;99.90;;;;;;5035776;28;20056;-68
2023/05/22 05:05:53;;;;;;;0.17;0.17;;;15.00;99.90;;;;;;5035366;28;20028;-68
2023/05/22 05:08:18;;;;;;;0.13;0.13;;;15.00;99.90;;;;;;5035232;28;20390;-68
2023/05/22 05:10:44;;;;;;;0.20;0.20;;;15.00;99.90;;;;;;5035400;28;20552;-68
2023/05/22 05:13:09;;;;;;;0.13;0.13;;;15.00;99.90;;;;;;5035344;28;20065;-68
2023/05/22 05:15:35;;;;;;;0.20;0.20;;;15.10;99.90;;;;;;5035294;28;20021;-68
2023/05/22 05:18:00;;;;;;;0.20;0.20;;;15.20;99.90;;;;;;5035149;28;20494;-68
2023/05/22 05:20:26;;;;;;;0.10;0.10;;;15.20;99.90;;;;;;5035165;28;20087;-68
2023/05/22 05:22:52;;;;;;;0.13;0.13;;;15.30;99.90;;;;;;5035175;28;20021;-67
2023/05/22 05:25:18;;;;;;;0.20;0.20;;;15.30;99.90;;;;;;5034815;28;20028;-68
2023/05/22 05:27:43;;;;;;;0.10;0.10;;;15.40;99.90;;;;;;5034495;28;20029;-68
2023/05/22 05:30:09;;;;;;;0.20;0.20;;;15.40;99.90;;;;;;5035081;28;20067;-68
2023/05/22 05:32:35;;;;;;;0.10;0.10;;;15.50;99.90;;;;;;5035472;28;20030;-68
2023/05/22 05:35:00;;;;;;;0.10;0.10;;;15.50;99.90;;;;;;5034603;28;20475;-68
2023/05/22 05:37:26;;;;;;;0.10;0.10;;;15.60;99.90;;;;;;5034510;28;20029;-68
2023/05/22 05:39:51;;;;;;;0.20;0.20;;;15.60;99.90;;;;;;5034521;28;20108;-68
2023/05/22 05:42:17;;;;;;;0.10;0.10;;;15.70;99.90;;;;;;5034117;28;20040;-68
2023/05/22 05:44:42;;;;;;;0.20;0.20;;;15.70;99.90;;;;;;5031754;28;20083;-68
2023/05/22 05:47:08;;;;;;;0.20;0.20;;;15.70;99.90;;;;;;5034334;28;20026;-68
2023/05/22 05:49:34;;;;;;;0.10;0.10;;;15.70;99.90;;;;;;5034184;28;20120;-68
2023/05/22 05:51:59;;;;;;;0.10;0.10;;;15.70;99.90;;;;;;5034300;28;20029;-68
2023/05/22 05:54:25;;;;;;;0.10;0.10;;;15.80;99.90;;;;;;5034622;28;20100;-68
2023/05/22 05:56:51;;;;;;;0.20;0.20;;;15.80;99.90;;;;;;5034504;28;20494;-68
2023/05/22 05:59:17;;;;;;;0.10;0.10;;;15.80;99.90;;;;;;5033866;28;20018;-68
2023/05/22 06:01:46;;;;;;;0.20;0.20;;;15.90;99.90;;;;;;5034370;28;20479;-68
2023/05/22 06:04:12;;;;;;;0.10;0.10;;;15.90;99.90;;;;;;5034055;28;20021;-68
2023/05/22 06:06:38;;;;;;;0.20;0.20;;;16.00;99.90;;;;;;5034217;28;20021;-67
2023/05/22 06:09:05;;;;;;;0.20;0.20;;;16.10;99.90;;;;;;5033652;28;20482;-67
2023/05/22 06:11:31;;;;;;;0.10;0.10;;;16.30;99.90;;;;;;5034310;28;20108;-68
2023/05/22 06:13:58;;;;;;;0.20;0.20;;;16.30;99.90;;;;;;5033889;28;20030;-67
2023/05/22 06:16:24;;;;;;;0.20;0.20;;;16.40;99.90;;;;;;5033515;28;20068;-67
2023/05/22 06:18:51;;;;;;;0.20;0.20;;;16.50;99.90;;;;;;5034034;28;20033;-67
2023/05/22 06:21:19;;;;;;;0.20;0.20;;;16.60;99.90;;;;;;5034129;28;20033;-68
2023/05/22 06:23:45;;;;;;;0.10;0.10;;;16.60;99.90;;;;;;5033939;28;20021;-68
2023/05/22 06:26:11;;;;;;;0.15;0.15;;;16.70;99.90;;;;;;5033613;28;20026;-68
2023/05/22 06:28:36;;;;;;;0.20;0.20;;;16.70;99.90;;;;;;5033590;28;20033;-68
2023/05/22 06:31:02;;;;;;;0.10;0.10;;;16.80;99.90;;;;;;5033544;28;20075;-68
2023/05/22 06:33:28;;;;;;;0.20;0.20;;;16.90;99.90;;;;;;5033901;28;20486;-68
2023/05/22 06:35:54;;;;;;;0.20;0.20;;;17.00;99.90;;;;;;5033255;28;20474;-68
2023/05/22 06:38:19;;;;;;;0.10;0.10;;;17.00;99.90;;;;;;5033634;28;20499;-68
2023/05/22 06:40:45;;;;;;;0.10;0.10;;;17.10;99.90;;;;;;5033827;28;20071;-68
2023/05/22 06:43:11;;;;;;;0.13;0.13;;;17.20;99.90;;;;;;5033233;28;20029;-68
2023/05/22 06:45:37;;;;;;;0.10;0.10;;;17.30;99.90;;;;;;5033334;28;20487;-68
2023/05/22 06:48:02;;;;;;;0.10;0.10;;;17.40;99.90;;;;;;5033122;28;20022;-68
2023/05/22 06:50:29;;;;;;;0.10;0.10;;;17.50;99.90;;;;;;5033469;28;20049;-68
2023/05/22 06:52:55;;;;;;;0.10;0.10;;;17.60;99.90;;;;;;5033265;28;20120;-68
2023/05/22 06:55:21;;;;;;;0.10;0.10;;;17.70;99.90;;;;;;5032323;28;20029;-68
2023/05/22 06:57:47;;;;;;;0.20;0.20;;;17.80;99.90;;;;;;5033288;28;20030;-68
2023/05/22 07:00:13;;;;;;;0.10;0.10;;;17.90;99.90;;;;;;5033102;28;20450;-68
2023/05/22 07:02:39;;;;;;;0.10;0.10;;;18.00;99.90;;;;;;5033052;28;20120;-67
2023/05/22 07:05:05;;;;;;;0.10;0.10;;;18.10;99.90;;;;;;5033469;28;20030;-69
2023/05/22 07:07:31;;;;;;;0.20;0.20;;;18.10;99.90;;;;;;5032646;28;20033;-68
2023/05/22 07:09:56;;;;;;;0.10;0.10;;;18.10;99.90;;;;;;5032773;28;20045;-68
2023/05/22 07:12:24;;;;;;;0.13;0.13;;;18.20;99.90;;;;;;5032788;28;20029;-68
2023/05/22 07:14:51;;;;;;;0.10;0.10;;;18.40;99.90;;;;;;5032765;28;20021;-68
2023/05/22 07:17:17;;;;;;;0.10;0.10;;;18.60;99.90;;;;;;5033197;28;20022;-68
2023/05/22 07:19:43;;;;;;;0.10;0.10;;;18.70;99.90;;;;;;5033056;28;20029;-68
2023/05/22 07:22:08;;;;;;;0.10;0.10;;;18.80;99.90;;;;;;5032821;28;20479;-68
2023/05/22 07:24:34;;;;;;;0.10;0.10;;;19.00;99.90;;;;;;5032490;28;20041;-68
2023/05/22 07:27:00;;;;;;;0.10;0.10;;;19.00;99.90;;;;;;5032761;28;20045;-68
2023/05/22 07:29:25;;;;;;;0.10;0.10;;;19.20;99.90;;;;;;5032537;28;20117;-68
2023/05/22 07:31:51;;;;;;;0.10;0.10;;;19.50;99.90;;;;;;5032527;28;20038;-68
2023/05/22 07:34:16;;;;;;;0.10;0.10;;;19.80;99.90;;;;;;5032870;28;20100;-68
2023/05/22 07:36:42;;;;;;;0.10;0.10;;;20.10;99.90;;;;;;5032604;28;20552;-68
2023/05/22 07:39:08;;;;;;;0.10;0.10;;;20.20;99.90;;;;;;5032453;28;20018;-65
2023/05/22 07:41:33;;;;;;;0.10;0.10;;;20.30;99.90;;;;;;5032955;28;20026;-65
2023/05/22 07:43:59;;;;;;;0.13;0.13;;;20.40;99.90;;;;;;5032642;28;20506;-66
2023/05/22 07:46:25;;;;;;;0.10;0.10;;;20.40;99.90;;;;;;5032635;28;20033;-67
2023/05/22 07:48:50;;;;;;;0.10;0.10;;;20.30;99.90;;;;;;5032342;28;20029;-67
2023/05/22 07:51:16;;;;;;;0.10;0.10;;;20.30;99.90;;;;;;5032720;28;20036;-67
2023/05/22 07:53:41;;;;;;;0.10;0.10;;;20.30;99.90;;;;;;5032258;28;20065;-66
2023/05/22 07:56:07;;;;;;;0.10;0.10;;;20.40;99.90;;;;;;5032374;28;20143;-67
2023/05/22 07:58:32;;;;;;;0.10;0.10;;;20.40;99.90;;;;;;5032784;28;20099;-67
2023/05/22 08:00:58;;;;;;;0.10;0.10;;;20.40;99.90;;;;;;5032430;28;20091;-67
2023/05/22 08:03:23;;;;;;;0.10;0.10;;;20.70;99.90;;;;;;5032565;28;20080;-67
2023/05/22 08:05:49;;;;;;;0.10;0.10;;;20.80;99.90;;;;;;5032500;28;20037;-67
2023/05/22 08:08:14;;;;;;;0.08;0.08;;;20.90;99.90;;;;;;5035762;28;20038;-66
2023/05/22 08:10:40;;;;;;;0.10;0.10;;;21.20;99.90;;;;;;5036100;28;20033;-66
2023/05/22 08:13:06;;;;;;;0.10;0.10;;;21.30;99.90;;;;;;5036313;28;20426;-67
2023/05/22 08:15:33;;;;;;;0.10;0.10;;;21.40;99.90;;;;;;5036111;28;20034;-67
2023/05/22 08:17:58;;;;;;;0.10;0.10;;;21.40;99.90;;;;;;5036724;28;20021;-67
2023/05/22 08:20:24;;;;;;;0.10;0.10;;;21.40;99.90;;;;;;5036297;28;20021;-67
2023/05/22 08:22:50;;;;;;;0.10;0.10;;;21.40;99.90;;;;;;5036052;28;20037;-67
2023/05/22 08:25:15;;;;;;;0.10;0.10;;;21.40;99.90;;;;;;5036211;28;20036;-66
2023/05/22 08:27:41;;;;;;;0.10;0.10;;;21.50;99.90;;;;;;5035966;28;20068;-66
2023/05/22 08:30:07;;;;;;;0.10;0.10;;;21.50;99.90;;;;;;5035847;28;20108;-67
2023/05/22 08:32:33;;;;;;;0.00;0.00;;;21.60;99.90;;;;;;5036321;28;20037;-67
2023/05/22 08:34:58;;;;;;;0.10;0.10;;;21.50;99.90;;;;;;5035886;28;20025;-66
2023/05/22 08:37:24;;;;;;;0.10;0.10;;;21.70;99.90;;;;;;5036036;28;20025;-66
2023/05/22 08:39:50;;;;;;;0.08;0.08;;;21.70;99.90;;;;;;5035842;28;20030;-67
2023/05/22 08:42:15;;;;;;;0.10;0.10;;;21.70;99.90;;;;;;5036045;28;20029;-67
2023/05/22 08:44:41;;;;;;;0.08;0.08;;;21.90;99.90;;;;;;5035492;28;20411;-67
2023/05/22 08:47:12;;;;;;;0.00;0.00;;;22.30;99.90;;;;;;5035713;28;20040;-67
2023/05/22 08:49:39;;;;;;;0.00;0.00;;;22.70;99.90;;;;;;5036052;28;20095;-67
2023/05/22 08:52:20;;;;;;;0.10;0.10;;;22.80;99.90;;;;;;5035569;28;20105;-67
2023/05/22 08:54:51;;;;;;;0.10;0.10;;;22.90;99.90;;;;;;5035579;28;20017;-67
2023/05/22 08:57:18;;;;;;;0.10;0.10;;;23.00;99.90;;;;;;5035474;28;20028;-67
2023/05/22 08:59:44;;;;;;;0.00;0.00;;;23.40;99.90;;;;;;5035322;28;20049;-67
2023/05/22 09:02:11;;;;;;;0.10;0.10;;;23.60;99.90;;;;;;5035314;28;20061;-67
2023/05/22 09:04:40;;;;;;;0.00;0.00;;;23.90;99.90;;;;;;5035535;28;20033;-67
2023/05/22 09:07:05;;;;;;;0.00;0.00;;;24.10;99.90;;;;;;5035832;28;20057;-67
2023/05/22 09:09:38;;;;;;;0.00;0.00;;;24.30;99.90;;;;;;5035344;28;20403;-67
2023/05/22 09:12:08;;;;;;;0.00;0.00;;;24.40;99.90;;;;;;5035584;28;20060;-67
2023/05/22 09:14:40;;;;;;;0.00;0.00;;;24.30;99.90;;;;;;5035076;28;20021;-67
2023/05/22 09:17:08;;;;;;;0.10;0.10;;;24.30;99.90;;;;;;5035583;28;20025;-68
2023/05/22 09:19:34;;;;;;;0.00;0.00;;;24.30;99.90;;;;;;5034247;28;20037;-67
2023/05/22 09:22:05;;;;;;;0.00;0.00;;;24.40;99.90;;;;;;5034207;28;20026;-67
2023/05/22 09:24:37;;;;;;;0.00;0.00;;;24.40;99.90;;;;;;5035090;28;20432;-67
2023/05/22 09:27:05;;;;;;;0.00;0.00;;;24.50;99.90;;;;;;5035249;28;20033;-68
2023/05/22 09:29:32;;;;;;;0.00;0.00;;;24.50;99.90;;;;;;5035026;28;20434;-68
2023/05/22 09:31:58;;;;;;;0.00;0.00;;;24.10;99.90;;;;;;5034560;28;20040;-67
2023/05/22 09:34:28;;;;;;;0.00;0.00;;;24.10;99.90;;;;;;5035156;28;20140;-67
2023/05/22 09:37:02;;;;;;;0.05;0.05;;;23.80;99.90;;;;;;5035331;28;20082;-67
2023/05/22 09:39:42;;;;;;;0.00;0.00;;;23.50;99.90;;;;;;5035284;28;20028;-67
2023/05/22 09:42:10;;;;;;;0.00;0.00;;;23.50;99.90;;;;;;5034866;28;20025;-67
2023/05/22 09:44:36;;;;;;;0.00;0.00;;;23.30;99.90;;;;;;5034929;28;20207;-67
2023/05/22 09:47:03;;;;;;;0.00;0.00;;;23.30;99.90;;;;;;5034611;28;20025;-68
2023/05/22 09:49:29;;;;;;;0.00;0.00;;;23.30;99.90;;;;;;5034363;28;20443;-67
2023/05/22 09:51:55;;;;;;;0.00;0.00;;;23.40;99.90;;;;;;5034666;28;20035;-67
2023/05/22 09:54:23;;;;;;;0.00;0.00;;;23.40;99.90;;;;;;5034413;28;20029;-67
2023/05/22 09:56:54;;;;;;;0.00;0.00;;;23.40;99.90;;;;;;5034627;28;20022;-67
2023/05/22 09:59:25;;;;;;;0.00;0.00;;;23.20;99.90;;;;;;5034488;28;20472;-67
2023/05/22 10:01:52;;;;;;;0.00;0.00;;;23.20;99.90;;;;;;5034445;28;20412;-67
2023/05/22 10:04:20;;;;;;;0.00;0.00;;;23.10;99.90;;;;;;5034443;28;20074;-67
2023/05/22 10:06:50;;;;;;;0.00;0.00;;;23.20;99.90;;;;;;5034399;28;20030;-67
2023/05/22 10:09:20;;;;;;;0.00;0.00;;;23.40;99.90;;;;;;5034787;28;20482;-67
2023/05/22 10:11:47;;;;;;;0.00;0.00;;;23.50;99.90;;;;;;5034397;28;20025;-67
2023/05/22 10:14:13;;;;;;;0.00;0.00;;;23.60;99.90;;;;;;5034315;28;20434;-67
2023/05/22 10:16:40;;;;;;;0.00;0.00;;;23.80;99.90;;;;;;5034349;28;20052;-67
2023/05/22 10:19:07;;;;;;;0.00;0.00;;;24.10;99.90;;;;;;5034461;28;20121;-67
2023/05/22 10:21:35;;;;;;;0.00;0.00;;;24.30;99.90;;;;;;5034240;28;20479;-67
2023/05/22 10:24:02;;;;;;;0.00;0.00;;;24.50;99.90;;;;;;5034426;28;20025;-67
2023/05/22 10:26:28;;;;;;;0.00;0.00;;;24.60;99.90;;;;;;5034371;28;20029;-67
2023/05/22 10:29:01;;;;;;;0.00;0.00;;;24.60;99.90;;;;;;5034112;28;20033;-67
2023/05/22 10:31:41;;;;;;;0.00;0.00;;;24.70;99.90;;;;;;5034021;28;20056;-67
2023/05/22 10:34:09;;;;;;;0.00;0.00;;;24.70;99.90;;;;;;5033966;28;20426;-67
2023/05/22 10:36:48;;;;;;;0.00;0.00;;;24.90;99.90;;;;;;5034050;28;20048;-67
2023/05/22 10:39:41;;;;;;;0.00;0.00;;;25.10;99.90;;;;;;5034223;28;20029;-67
2023/05/22 10:42:13;;;;;;;0.00;0.00;;;25.50;99.90;;;;;;5033937;28;20040;-67
2023/05/22 10:44:39;;;;;;;0.00;0.00;;;25.70;99.90;;;;;;5034148;28;20120;-67
2023/05/22 10:47:10;;;;;;;0.00;0.00;;;25.90;99.90;;;;;;5033834;28;20108;-67
2023/05/22 10:49:35;;;;;;;0.00;0.00;;;26.00;99.90;;;;;;5033811;28;20108;-67
2023/05/22 10:52:02;;;;;;;0.00;0.00;;;26.00;99.90;;;;;;5033931;28;20109;-67
2023/05/22 10:54:58;;;;;;;0.00;0.00;;;26.00;99.90;;;;;;5033676;28;20037;-67
2023/05/22 10:57:24;;;;;;;0.00;0.00;;;25.90;99.90;;;;;;5021517;28;20168;-67
2023/05/22 10:59:50;;;;;;;0.00;0.00;;;25.70;99.90;;;;;;5033932;28;20056;-67
2023/05/22 11:02:20;;;;;;;0.00;0.00;;;25.40;99.90;;;;;;5033595;28;20037;-67
2023/05/22 11:04:45;;;;;;;0.00;0.00;;;25.10;99.90;;;;;;5033618;28;20436;-67
2023/05/22 11:07:13;;;;;;;0.00;0.00;;;25.20;99.90;;;;;;5033656;28;20029;-67
2023/05/22 11:09:46;;;;;;;0.00;0.00;;;25.00;99.90;;;;;;5033759;28;20029;-67
2023/05/22 11:12:26;;;;;;;0.00;0.00;;;24.80;99.90;;;;;;5033663;28;20395;-67
2023/05/22 11:15:06;;;;;;;0.00;0.00;;;24.80;99.90;;;;;;5033430;28;20414;-67
2023/05/22 11:17:48;;;;;;;0.00;0.00;;;24.90;99.90;;;;;;5033378;28;20033;-67
2023/05/22 11:20:21;;;;;;;0.00;0.00;;;25.20;99.90;;;;;;5033624;28;20030;-67
2023/05/22 11:23:04;;;;;;;0.00;0.00;;;25.40;99.90;;;;;;5033537;28;20030;-67
2023/05/22 11:25:33;;;;;;;0.00;0.00;;;25.70;99.90;;;;;;5033475;28;20022;-67
2023/05/22 11:28:02;;;;;;;0.00;0.00;;;26.30;99.90;;;;;;5033074;28;20128;-67
2023/05/22 11:30:29;;;;;;;0.00;0.00;;;26.40;99.90;;;;;;5033162;28;20048;-67
2023/05/22 11:32:56;;;;;;;0.00;0.00;;;26.40;99.90;;;;;;5033231;28;20117;-67
2023/05/22 11:35:22;;;;;;;0.00;0.00;;;26.30;99.90;;;;;;5033167;28;20064;-67
2023/05/22 11:37:50;;;;;;;0.00;0.00;;;26.40;99.90;;;;;;5033039;28;20040;-67
2023/05/22 11:40:20;;;;;;;0.00;0.00;;;26.40;99.90;;;;;;5033341;28;20024;-68
2023/05/22 11:42:46;;;;;;;0.00;0.00;;;26.60;99.90;;;;;;5032685;28;20394;-67
2023/05/22 11:45:12;;;;;;;0.00;0.00;;;26.60;99.90;;;;;;5033205;28;20097;-67
2023/05/22 11:47:38;;;;;;;0.00;0.00;;;26.20;99.90;;;;;;5032818;28;20483;-67
2023/05/22 11:50:05;;;;;;;0.00;0.00;;;26.20;99.90;;;;;;5033491;28;20029;-68
2023/05/22 11:52:32;;;;;;;0.00;0.00;;;25.80;99.90;;;;;;5033056;28;20036;-67
2023/05/22 11:54:58;;;;;;;0.00;0.00;;;25.40;99.90;;;;;;5032942;28;20051;-67
2023/05/22 11:57:24;;;;;;;0.00;0.00;;;24.90;99.90;;;;;;5032649;28;20041;-68
2023/05/22 11:59:50;;;;;;;0.00;0.00;;;24.70;99.90;;;;;;5033147;28;20022;-68
2023/05/22 12:02:17;;;;;;;0.00;0.00;;;24.60;99.90;;;;;;5033057;28;20033;-67
2023/05/22 12:04:42;;;;;;;0.00;0.00;;;24.60;99.90;;;;;;5032952;28;20040;-68
2023/05/22 12:07:08;;;;;;;0.00;0.00;;;24.60;99.90;;;;;;5033035;28;20029;-67
2023/05/22 12:09:34;;;;;;;0.00;0.00;;;24.50;99.90;;;;;;5033042;28;20394;-67
2023/05/22 12:12:00;;;;;;;0.00;0.00;;;24.40;99.90;;;;;;5032973;28;20478;-67
2023/05/22 12:14:27;;;;;;;0.00;0.00;;;24.70;99.90;;;;;;5032598;28;20021;-67
2023/05/22 12:16:53;;;;;;;0.00;0.00;;;25.00;99.90;;;;;;5032908;28;20033;-67
2023/05/22 12:19:19;;;;;;;0.00;0.00;;;25.20;99.90;;;;;;5032493;28;20025;-67
2023/05/22 12:21:44;;;;;;;0.00;0.00;;;25.60;99.90;;;;;;5032562;28;20029;-67
2023/05/22 12:24:10;;;;;;;0.00;0.00;;;25.80;99.90;;;;;;5032882;28;20029;-67
2023/05/22 12:26:36;;;;;;;0.00;0.00;;;26.20;99.90;;;;;;5032482;28;20076;-67
2023/05/22 12:29:05;;;;;;;0.00;0.00;;;26.30;99.90;;;;;;5032771;28;20491;-67
2023/05/22 12:31:35;;;;;;;0.00;0.00;;;27.10;99.90;;;;;;5032549;28;20048;-67
2023/05/22 12:34:04;;;;;;;0.00;0.00;;;28.40;99.90;;;;;;5032516;28;20029;-67
2023/05/22 12:36:40;;;;;;;0.00;0.00;;;28.70;99.90;;;;;;5032749;28;20416;-67
2023/05/22 12:39:18;;;;;;;0.00;0.00;;;28.90;99.90;;;;;;5032750;28;20021;-67
2023/05/22 12:41:45;;;;;;;0.00;0.00;;;29.30;99.90;;;;;;5032797;28;20026;-67
2023/05/22 12:44:11;;;;;;;0.00;0.00;;;29.30;99.90;;;;;;5032847;28;20034;-68
2023/05/22 12:46:37;;;;;;;0.00;0.00;;;28.60;99.90;;;;;;5032334;28;20021;-68
2023/05/22 12:49:03;;;;;;;0.00;0.00;;;28.60;99.90;;;;;;5032437;28;20034;-67
2023/05/22 12:51:30;;;;;;;0.00;0.00;;;28.30;99.90;;;;;;5032627;28;20029;-68